Time;durP1;ratioP1;P1;durP2;ratioP2;P2;SDS_P1;SDS_P2;PMS_P1;PMS_P2;Temp;Humidity;BMP_temperature;BMP_pressure;BME280_temperature;BME280_humidity;BME280_pressure;Samples;Min_cycle;Max_cycle;Signal;HPM_P1;HPM_P2
2022/04/02 00:01:59;;;;;;;7.80;5.15;;;;;;;;;;5005654;28;20026;-85
2022/04/02 00:04:25;;;;;;;7.00;5.60;;;;;;;;;;5000208;28;20038;-85
2022/04/02 00:06:53;;;;;;;10.07;5.80;;;;;;;;;;5016681;28;20041;-85
2022/04/02 00:09:19;;;;;;;8.48;5.95;;;;;;;;;;5015799;28;20026;-85
2022/04/02 00:11:45;;;;;;;7.07;5.30;;;;;;;;;;5016412;28;20022;-84
2022/04/02 00:14:11;;;;;;;8.07;6.03;;;;;;;;;;4999141;28;20033;-85
2022/04/02 00:16:37;;;;;;;9.13;5.50;;;;;;;;;;4999781;28;20021;-84
2022/04/02 00:19:03;;;;;;;9.40;4.93;;;;;;;;;;5016928;28;20026;-85
2022/04/02 00:21:29;;;;;;;8.60;5.05;;;;;;;;;;4988409;28;20104;-84
2022/04/02 00:23:55;;;;;;;7.10;5.35;;;;;;;;;;4997202;28;20018;-84
2022/04/02 00:26:22;;;;;;;8.00;5.25;;;;;;;;;;4996855;28;20025;-85
2022/04/02 00:28:49;;;;;;;9.00;5.38;;;;;;;;;;4996528;28;20434;-85
2022/04/02 00:31:15;;;;;;;6.03;4.72;;;;;;;;;;4999060;28;20028;-85
2022/04/02 00:33:43;;;;;;;7.07;5.03;;;;;;;;;;5015942;28;20018;-84
2022/04/02 00:36:09;;;;;;;8.93;6.00;;;;;;;;;;5015568;28;20022;-85
2022/04/02 00:38:35;;;;;;;8.02;5.72;;;;;;;;;;5016023;28;20022;-86
2022/04/02 00:41:01;;;;;;;7.80;6.00;;;;;;;;;;5015360;28;20025;-85
2022/04/02 00:43:27;;;;;;;7.43;4.82;;;;;;;;;;5004556;28;20076;-85
2022/04/02 00:45:54;;;;;;;7.47;4.88;;;;;;;;;;4996069;28;20336;-84
2022/04/02 00:48:20;;;;;;;7.38;5.35;;;;;;;;;;4996864;28;20026;-86
2022/04/02 00:50:47;;;;;;;7.68;5.72;;;;;;;;;;4978961;28;20154;-84
2022/04/02 00:53:14;;;;;;;6.22;4.78;;;;;;;;;;4979099;28;20057;-85
2022/04/02 00:55:41;;;;;;;8.43;5.68;;;;;;;;;;4979369;28;20097;-85
2022/04/02 00:58:08;;;;;;;7.43;5.78;;;;;;;;;;4989594;28;20157;-85
2022/04/02 01:00:34;;;;;;;8.30;5.15;;;;;;;;;;4997916;28;20371;-85
2022/04/02 01:03:00;;;;;;;8.38;5.80;;;;;;;;;;5015423;28;20037;-86
2022/04/02 01:05:26;;;;;;;8.18;5.63;;;;;;;;;;5015355;28;20092;-85
2022/04/02 01:07:53;;;;;;;6.88;5.20;;;;;;;;;;5015366;28;20108;-85
2022/04/02 01:10:19;;;;;;;6.75;5.80;;;;;;;;;;4997968;28;20110;-85
2022/04/02 01:12:45;;;;;;;7.55;6.13;;;;;;;;;;5003213;28;20042;-85
2022/04/02 01:15:12;;;;;;;8.10;5.88;;;;;;;;;;4978468;28;20030;-85
2022/04/02 01:17:40;;;;;;;7.22;5.45;;;;;;;;;;5003374;28;20019;-85
2022/04/02 01:20:10;;;;;;;9.25;6.05;;;;;;;;;;4995379;28;20030;-85
2022/04/02 01:22:37;;;;;;;9.38;5.90;;;;;;;;;;4979065;28;20026;-85
2022/04/02 01:25:05;;;;;;;7.95;5.95;;;;;;;;;;4995671;28;20038;-85
2022/04/02 01:27:31;;;;;;;10.90;5.57;;;;;;;;;;4995877;28;20084;-86
2022/04/02 01:29:57;;;;;;;8.07;5.95;;;;;;;;;;4978768;28;20030;-86
2022/04/02 01:32:23;;;;;;;8.13;5.60;;;;;;;;;;4978197;28;20054;-86
2022/04/02 01:34:49;;;;;;;11.40;5.72;;;;;;;;;;4995332;28;20530;-86
2022/04/02 01:37:16;;;;;;;8.23;6.00;;;;;;;;;;5014086;28;20490;-87
2022/04/02 01:39:43;;;;;;;9.15;5.82;;;;;;;;;;4997758;28;20030;-86
2022/04/02 01:42:09;;;;;;;10.40;5.72;;;;;;;;;;5015486;28;20037;-84
2022/04/02 01:44:35;;;;;;;6.45;5.40;;;;;;;;;;4997368;28;20434;-84
2022/04/02 01:47:01;;;;;;;8.25;5.78;;;;;;;;;;5015232;28;20033;-84
2022/04/02 01:49:27;;;;;;;9.35;5.82;;;;;;;;;;4997777;28;20033;-85
2022/04/02 01:51:53;;;;;;;8.60;5.90;;;;;;;;;;5010648;28;20030;-86
2022/04/02 01:54:20;;;;;;;8.52;5.88;;;;;;;;;;4999564;28;20030;-83
2022/04/02 01:56:47;;;;;;;7.60;6.10;;;;;;;;;;4996266;28;20037;-83
2022/04/02 01:59:13;;;;;;;7.68;5.75;;;;;;;;;;4995564;28;20446;-85
2022/04/02 02:01:39;;;;;;;6.43;4.95;;;;;;;;;;4995033;28;20026;-84
2022/04/02 02:04:05;;;;;;;6.97;5.32;;;;;;;;;;4978810;28;20030;-84
2022/04/02 02:06:33;;;;;;;8.75;5.75;;;;;;;;;;5030570;22;20022;-83
2022/04/02 02:08:59;;;;;;;7.45;5.47;;;;;;;;;;5007359;28;20069;-85
2022/04/02 02:11:26;;;;;;;7.65;5.78;;;;;;;;;;4998702;28;20022;-84
2022/04/02 02:13:52;;;;;;;8.25;6.15;;;;;;;;;;5017672;28;20105;-84
2022/04/02 02:16:18;;;;;;;7.03;5.40;;;;;;;;;;5017425;28;20021;-85
2022/04/02 02:18:44;;;;;;;8.55;5.43;;;;;;;;;;5001450;28;20034;-83
2022/04/02 02:21:11;;;;;;;7.43;4.78;;;;;;;;;;4996230;28;20030;-83
2022/04/02 02:23:37;;;;;;;6.28;5.13;;;;;;;;;;4996041;28;20030;-84
2022/04/02 02:26:03;;;;;;;7.03;5.22;;;;;;;;;;4977122;28;20026;-84
2022/04/02 02:28:29;;;;;;;6.53;5.13;;;;;;;;;;4994691;28;20041;-83
2022/04/02 02:30:57;;;;;;;6.65;4.65;;;;;;;;;;4994380;28;20433;-84
2022/04/02 02:36:08;;;;;;;5.70;4.53;;;;;;;;;;4994671;28;20099;-82
2022/04/02 02:38:34;;;;;;;5.57;4.00;;;;;;;;;;4976410;28;20049;-84
2022/04/02 02:41:00;;;;;;;6.50;4.20;;;;;;;;;;4977988;28;20027;-84
2022/04/02 02:43:26;;;;;;;6.63;4.40;;;;;;;;;;4993912;28;20042;-83
2022/04/02 02:45:52;;;;;;;4.78;4.28;;;;;;;;;;4976187;28;20433;-84
2022/04/02 02:48:18;;;;;;;9.38;4.00;;;;;;;;;;4993625;28;20030;-84
2022/04/02 02:50:44;;;;;;;7.40;4.75;;;;;;;;;;4994040;28;20106;-85
2022/04/02 02:53:10;;;;;;;8.32;4.80;;;;;;;;;;4994712;28;20121;-84
2022/04/02 02:55:37;;;;;;;6.60;4.40;;;;;;;;;;4994213;28;20018;-83
2022/04/02 02:58:03;;;;;;;6.20;4.30;;;;;;;;;;4974789;28;20110;-83
2022/04/02 03:00:29;;;;;;;5.07;4.22;;;;;;;;;;4956809;28;20027;-84
2022/04/02 03:02:55;;;;;;;5.82;4.57;;;;;;;;;;4960121;28;20473;-83
2022/04/02 03:05:21;;;;;;;8.00;5.15;;;;;;;;;;4994152;28;20125;-83
2022/04/02 03:07:48;;;;;;;8.57;4.53;;;;;;;;;;4977281;28;20026;-82
2022/04/02 03:10:33;;;;;;;8.63;5.20;;;;;;;;;;4977443;28;20022;-83
2022/04/02 03:12:59;;;;;;;6.63;3.97;;;;;;;;;;4995977;28;20022;-83
2022/04/02 03:15:26;;;;;;;7.32;4.43;;;;;;;;;;4977623;28;20054;-83
2022/04/02 03:17:52;;;;;;;8.68;4.22;;;;;;;;;;5004178;28;20429;-84
2022/04/02 03:20:19;;;;;;;5.03;3.85;;;;;;;;;;5015052;28;20044;-86
2022/04/02 03:22:47;;;;;;;5.55;4.45;;;;;;;;;;5015822;28;20109;-84
2022/04/02 03:25:14;;;;;;;6.57;4.93;;;;;;;;;;5008663;28;20030;-85
2022/04/02 03:27:40;;;;;;;9.57;4.75;;;;;;;;;;4977686;28;20475;-83
2022/04/02 03:30:09;;;;;;;7.60;4.35;;;;;;;;;;4995334;28;20490;-84
2022/04/02 03:32:35;;;;;;;6.80;4.50;;;;;;;;;;4995034;28;20030;-83
2022/04/02 03:35:01;;;;;;;4.75;4.20;;;;;;;;;;4994622;28;20058;-85
2022/04/02 03:37:28;;;;;;;4.65;3.95;;;;;;;;;;4995437;28;20034;-83
2022/04/02 03:39:54;;;;;;;7.15;4.40;;;;;;;;;;4978095;28;20113;-82
2022/04/02 03:42:20;;;;;;;6.40;4.47;;;;;;;;;;4978056;28;20212;-84
2022/04/02 03:44:46;;;;;;;6.55;4.28;;;;;;;;;;4999417;28;20026;-84
2022/04/02 03:47:12;;;;;;;7.22;4.47;;;;;;;;;;4999198;28;20023;-83
2022/04/02 03:49:43;;;;;;;6.82;4.45;;;;;;;;;;4981325;28;20053;-83
2022/04/02 03:52:09;;;;;;;6.32;4.65;;;;;;;;;;4998909;28;20049;-83
2022/04/02 03:54:35;;;;;;;9.45;4.47;;;;;;;;;;4981300;28;20042;-85
2022/04/02 03:57:05;;;;;;;8.20;4.20;;;;;;;;;;4981338;28;20165;-84
2022/04/02 03:59:31;;;;;;;4.90;4.20;;;;;;;;;;4998709;28;20395;-84
2022/04/02 04:01:57;;;;;;;4.63;3.90;;;;;;;;;;4980522;28;20477;-81
2022/04/02 04:04:24;;;;;;;10.27;4.43;;;;;;;;;;4980527;28;20030;-83
2022/04/02 04:06:51;;;;;;;5.30;4.30;;;;;;;;;;4980328;28;20052;-84
2022/04/02 04:09:17;;;;;;;7.32;4.70;;;;;;;;;;4999713;28;20038;-85
2022/04/02 04:11:44;;;;;;;6.18;4.55;;;;;;;;;;4999250;28;20034;-83
2022/04/02 04:14:10;;;;;;;6.43;4.13;;;;;;;;;;4980865;28;20026;-83
2022/04/02 04:16:36;;;;;;;7.15;4.50;;;;;;;;;;4967935;28;20080;-83
2022/04/02 04:19:03;;;;;;;4.97;4.13;;;;;;;;;;5016921;28;20046;-83
2022/04/02 04:21:29;;;;;;;7.18;4.72;;;;;;;;;;5005564;28;20058;-84
2022/04/02 04:23:55;;;;;;;5.15;4.28;;;;;;;;;;4998535;28;20042;-84
2022/04/02 04:26:21;;;;;;;6.20;4.63;;;;;;;;;;4998503;28;20026;-83
2022/04/02 04:28:47;;;;;;;6.43;4.40;;;;;;;;;;4998249;28;20030;-84
2022/04/02 04:31:17;;;;;;;7.95;4.55;;;;;;;;;;4980976;28;20026;-85
2022/04/02 04:33:43;;;;;;;8.80;4.45;;;;;;;;;;4998788;28;20053;-83
2022/04/02 04:36:09;;;;;;;5.85;4.05;;;;;;;;;;4998379;28;20035;-83
2022/04/02 04:38:36;;;;;;;6.60;4.43;;;;;;;;;;4999107;28;20030;-83
2022/04/02 04:41:02;;;;;;;6.30;4.40;;;;;;;;;;4980940;28;20034;-83
2022/04/02 04:43:28;;;;;;;6.13;4.03;;;;;;;;;;4999528;28;20110;-84
2022/04/02 04:45:54;;;;;;;5.28;3.65;;;;;;;;;;5000530;28;20030;-82
2022/04/02 04:48:20;;;;;;;5.80;4.13;;;;;;;;;;4998742;28;20038;-82
2022/04/02 04:50:47;;;;;;;6.55;4.40;;;;;;;;;;4980697;28;20046;-86
2022/04/02 04:53:13;;;;;;;7.53;4.45;;;;;;;;;;4998607;28;20034;-86
2022/04/02 04:55:39;;;;;;;6.45;4.53;;;;;;;;;;4980344;28;20038;-83
2022/04/02 04:58:05;;;;;;;5.28;4.25;;;;;;;;;;4998575;28;20030;-85
2022/04/02 05:00:31;;;;;;;5.07;4.25;;;;;;;;;;4979631;28;20501;-83
2022/04/02 05:02:58;;;;;;;7.63;4.53;;;;;;;;;;4998946;28;20529;-83
2022/04/02 05:05:25;;;;;;;6.68;3.80;;;;;;;;;;4998713;28;20030;-83
2022/04/02 05:07:51;;;;;;;5.93;4.03;;;;;;;;;;4980628;28;20042;-83
2022/04/02 05:10:17;;;;;;;7.68;3.90;;;;;;;;;;4998550;28;20041;-85
2022/04/02 05:12:43;;;;;;;7.38;4.45;;;;;;;;;;4980370;28;20507;-83
2022/04/02 05:15:09;;;;;;;4.90;4.22;;;;;;;;;;5001039;28;20029;-85
2022/04/02 05:17:36;;;;;;;7.45;4.22;;;;;;;;;;5013428;28;20125;-86
2022/04/02 05:20:07;;;;;;;5.22;4.03;;;;;;;;;;5001285;28;20031;-84
2022/04/02 05:22:33;;;;;;;;;;;;;;;;;;5002489;28;20034;-85
2022/04/02 05:24:59;;;;;;;5.05;4.07;;;;;;;;;;4984325;28;20479;-86
2022/04/02 05:27:25;;;;;;;6.25;4.50;;;;;;;;;;4983979;28;20026;-85
2022/04/02 05:29:51;;;;;;;5.15;4.03;;;;;;;;;;5002053;28;20089;-84
2022/04/02 05:32:18;;;;;;;6.75;5.22;;;;;;;;;;5000140;28;20030;-84
2022/04/02 05:34:43;;;;;;;6.22;4.70;;;;;;;;;;4999628;28;20029;-84
2022/04/02 05:37:09;;;;;;;9.75;4.45;;;;;;;;;;5000171;28;20121;-85
2022/04/02 05:39:35;;;;;;;6.22;4.47;;;;;;;;;;4999762;28;20030;-84
2022/04/02 05:42:02;;;;;;;7.75;5.50;;;;;;;;;;5000304;28;20030;-83
2022/04/02 05:44:30;;;;;;;6.97;4.55;;;;;;;;;;4999910;28;20090;-85
2022/04/02 05:46:56;;;;;;;5.97;4.43;;;;;;;;;;4999680;28;20078;-84
2022/04/02 05:49:22;;;;;;;6.53;4.25;;;;;;;;;;5000096;28;20069;-83
2022/04/02 05:51:48;;;;;;;8.02;4.82;;;;;;;;;;5000111;28;20113;-85
2022/04/02 05:54:14;;;;;;;10.20;5.38;;;;;;;;;;4999791;28;20049;-85
2022/04/02 05:56:41;;;;;;;6.10;4.97;;;;;;;;;;4998672;28;20033;-84
2022/04/02 05:59:08;;;;;;;10.82;4.97;;;;;;;;;;4997227;28;20015;-86
2022/04/02 06:01:35;;;;;;;6.57;4.50;;;;;;;;;;4980528;28;20496;-85
2022/04/02 06:04:02;;;;;;;5.55;4.70;;;;;;;;;;4994530;28;20041;-84
2022/04/02 06:06:28;;;;;;;6.40;4.72;;;;;;;;;;4989398;28;20031;-83
2022/04/02 06:08:54;;;;;;;8.90;4.65;;;;;;;;;;4982077;28;20080;-83
2022/04/02 06:11:20;;;;;;;5.85;4.60;;;;;;;;;;4981750;28;20030;-81
2022/04/02 06:13:46;;;;;;;8.70;5.30;;;;;;;;;;4999936;28;20485;-83
2022/04/02 06:16:12;;;;;;;6.93;4.50;;;;;;;;;;4980879;28;20376;-85
2022/04/02 06:18:38;;;;;;;7.25;4.60;;;;;;;;;;4995543;28;20104;-85
2022/04/02 06:21:04;;;;;;;6.35;4.07;;;;;;;;;;5012444;28;20030;-84
2022/04/02 06:23:31;;;;;;;10.35;4.38;;;;;;;;;;4980162;28;20061;-85
2022/04/02 06:25:57;;;;;;;7.63;4.72;;;;;;;;;;5000062;28;20026;-86
2022/04/02 06:28:23;;;;;;;5.20;4.30;;;;;;;;;;5016890;28;20030;-86
2022/04/02 06:30:49;;;;;;;8.15;4.18;;;;;;;;;;5018687;28;20478;-85
2022/04/02 06:33:15;;;;;;;6.22;4.68;;;;;;;;;;4999075;28;20436;-84
2022/04/02 06:35:41;;;;;;;6.60;4.70;;;;;;;;;;4987655;28;20098;-84
2022/04/02 06:38:07;;;;;;;6.57;4.63;;;;;;;;;;4967879;28;20046;-86
2022/04/02 06:40:33;;;;;;;10.13;4.85;;;;;;;;;;4993040;28;20148;-83
2022/04/02 06:43:00;;;;;;;5.22;4.50;;;;;;;;;;4997308;28;20038;-82
2022/04/02 06:45:26;;;;;;;8.85;4.40;;;;;;;;;;4978953;28;20030;-85
2022/04/02 06:47:52;;;;;;;5.90;4.18;;;;;;;;;;4996818;28;20034;-82
2022/04/02 06:50:19;;;;;;;9.43;4.40;;;;;;;;;;4979842;28;20022;-80
2022/04/02 06:52:45;;;;;;;8.57;4.30;;;;;;;;;;5003515;28;20030;-80
2022/04/02 06:55:12;;;;;;;7.50;4.00;;;;;;;;;;4998743;28;20028;-82
2022/04/02 06:57:41;;;;;;;6.57;4.30;;;;;;;;;;4979273;28;20037;-82
2022/04/02 07:00:08;;;;;;;9.30;5.43;;;;;;;;;;5000038;28;20022;-82
2022/04/02 07:02:34;;;;;;;7.25;4.50;;;;;;;;;;4981080;28;20066;-82
2022/04/02 07:05:00;;;;;;;6.40;5.00;;;;;;;;;;5003077;28;20045;-84
2022/04/02 07:07:26;;;;;;;6.63;4.47;;;;;;;;;;5004680;28;20652;-84
2022/04/02 07:09:52;;;;;;;4.45;4.00;;;;;;;;;;5002729;28;20026;-85
2022/04/02 07:12:18;;;;;;;5.63;4.18;;;;;;;;;;4985907;28;20033;-86
2022/04/02 07:14:44;;;;;;;6.22;4.70;;;;;;;;;;4986235;28;20034;-89
2022/04/02 07:17:10;;;;;;;6.88;4.28;;;;;;;;;;4978918;28;20033;-82
2022/04/02 07:19:37;;;;;;;5.22;4.22;;;;;;;;;;5006861;28;20037;-83
2022/04/02 07:22:07;;;;;;;8.95;4.90;;;;;;;;;;4990326;28;20141;-83
2022/04/02 07:24:33;;;;;;;4.63;3.58;;;;;;;;;;5007574;28;20030;-84
2022/04/02 07:26:59;;;;;;;5.28;4.50;;;;;;;;;;5020873;28;20048;-82
2022/04/02 07:29:26;;;;;;;11.10;4.80;;;;;;;;;;4995812;28;20062;-82
2022/04/02 07:31:52;;;;;;;7.85;5.05;;;;;;;;;;5008381;28;20033;-81
2022/04/02 07:34:18;;;;;;;5.57;4.28;;;;;;;;;;4985397;28;20022;-82
2022/04/02 07:36:59;;;;;;;5.22;4.20;;;;;;;;;;4997409;28;20457;-82
2022/04/02 07:39:46;;;;;;;7.20;4.53;;;;;;;;;;4999883;28;20042;-82
2022/04/02 07:42:14;;;;;;;7.63;4.32;;;;;;;;;;4952935;28;20083;-82
2022/04/02 07:44:59;;;;;;;6.22;4.47;;;;;;;;;;5003183;28;20038;-82
2022/04/02 07:47:29;;;;;;;7.68;4.72;;;;;;;;;;5006802;28;20030;-82
2022/04/02 07:50:01;;;;;;;4.32;3.28;;;;;;;;;;5004761;28;20053;-81
2022/04/02 07:52:28;;;;;;;5.93;4.55;;;;;;;;;;5005994;28;20102;-82
2022/04/02 07:54:56;;;;;;;5.93;4.47;;;;;;;;;;5001657;28;21459;-80
2022/04/02 07:57:22;;;;;;;5.20;4.32;;;;;;;;;;5001870;28;20041;-84
2022/04/02 07:59:52;;;;;;;7.78;4.00;;;;;;;;;;5004780;28;20160;-84
2022/04/02 08:02:36;;;;;;;4.90;3.85;;;;;;;;;;4986982;28;20036;-85
2022/04/02 08:05:03;;;;;;;7.50;4.75;;;;;;;;;;5003550;28;20026;-84
2022/04/02 08:07:30;;;;;;;5.93;4.22;;;;;;;;;;5035080;23;20061;-87
2022/04/02 08:09:57;;;;;;;5.60;4.43;;;;;;;;;;4999204;28;20030;-86
2022/04/02 08:12:23;;;;;;;5.68;4.30;;;;;;;;;;5014995;28;20421;-87
2022/04/02 08:14:50;;;;;;;4.88;3.83;;;;;;;;;;5030007;28;20002;-91
2022/04/02 08:17:17;;;;;;;7.35;4.70;;;;;;;;;;5009321;28;20029;-87
2022/04/02 08:19:44;;;;;;;5.50;4.00;;;;;;;;;;5027337;28;20014;-86
2022/04/02 08:22:10;;;;;;;8.35;4.82;;;;;;;;;;5026700;28;20045;-87
2022/04/02 08:24:36;;;;;;;9.98;4.43;;;;;;;;;;5004790;28;20022;-87
2022/04/02 08:27:11;;;;;;;8.25;4.25;;;;;;;;;;5020654;28;20129;-86
2022/04/02 08:30:13;;;;;;;5.25;3.90;;;;;;;;;;5007921;28;20482;-86
2022/04/02 08:32:39;;;;;;;5.35;4.10;;;;;;;;;;4936198;29;20183;-86
2022/04/02 08:35:09;;;;;;;6.65;4.63;;;;;;;;;;4973932;28;20049;-87
2022/04/02 08:37:38;;;;;;;5.22;3.75;;;;;;;;;;5005775;28;20465;-86
2022/04/02 08:40:19;;;;;;;7.00;4.68;;;;;;;;;;4988467;28;20034;-86
2022/04/02 08:43:04;;;;;;;6.15;4.65;;;;;;;;;;4988045;28;20058;-87
2022/04/02 08:45:32;;;;;;;7.53;3.90;;;;;;;;;;4988175;28;20030;-87
2022/04/02 08:47:58;;;;;;;6.35;4.70;;;;;;;;;;5005325;28;20446;-87
2022/04/02 08:50:28;;;;;;;5.57;4.20;;;;;;;;;;4987923;28;20034;-86
2022/04/02 08:53:13;;;;;;;6.38;4.18;;;;;;;;;;4988814;28;20018;-87
2022/04/02 08:55:45;;;;;;;7.18;4.93;;;;;;;;;;5005532;28;20053;-87
2022/04/02 08:58:18;;;;;;;6.55;3.90;;;;;;;;;;5006704;28;20038;-87
2022/04/02 09:00:55;;;;;;;4.70;3.72;;;;;;;;;;4989019;28;20027;-87
2022/04/02 09:03:31;;;;;;;10.98;4.40;;;;;;;;;;4989228;28;20034;-88
2022/04/02 09:06:06;;;;;;;12.88;6.72;;;;;;;;;;4988973;28;20030;-87
2022/04/02 09:08:51;;;;;;;6.25;4.20;;;;;;;;;;5006726;28;20050;-86
2022/04/02 09:11:27;;;;;;;4.20;3.65;;;;;;;;;;4988097;28;20026;-87
2022/04/02 09:14:05;;;;;;;5.95;4.43;;;;;;;;;;4989602;28;20118;-87
2022/04/02 09:16:40;;;;;;;6.85;3.95;;;;;;;;;;4997517;28;20076;-87
2022/04/02 09:19:06;;;;;;;6.20;4.20;;;;;;;;;;5008024;28;20172;-86
2022/04/02 09:21:35;;;;;;;5.88;3.80;;;;;;;;;;5025761;28;20034;-87
2022/04/02 09:24:01;;;;;;;6.93;4.05;;;;;;;;;;5006976;28;20094;-87
2022/04/02 09:26:46;;;;;;;5.13;4.03;;;;;;;;;;4998920;28;20034;-87
2022/04/02 09:29:16;;;;;;;5.22;3.70;;;;;;;;;;4988195;28;20046;-87
2022/04/02 09:31:45;;;;;;;5.53;4.20;;;;;;;;;;5005562;28;20033;-88
2022/04/02 09:34:30;;;;;;;6.68;4.18;;;;;;;;;;5005139;28;20034;-88
2022/04/02 09:36:59;;;;;;;6.13;4.30;;;;;;;;;;4987933;28;20034;-86
2022/04/02 09:39:37;;;;;;;6.45;3.90;;;;;;;;;;5004852;28;20128;-86
2022/04/02 09:42:18;;;;;;;6.50;3.83;;;;;;;;;;4987353;28;20053;-87
2022/04/02 09:44:53;;;;;;;9.65;4.50;;;;;;;;;;4988167;28;20133;-87
2022/04/02 09:47:23;;;;;;;8.63;4.28;;;;;;;;;;4988287;28;20042;-88
2022/04/02 09:49:49;;;;;;;5.40;4.57;;;;;;;;;;4987151;28;20026;-87
2022/04/02 09:52:21;;;;;;;15.40;4.75;;;;;;;;;;5004855;28;20041;-86
2022/04/02 09:54:47;;;;;;;8.27;4.15;;;;;;;;;;5006048;28;20029;-87
2022/04/02 09:57:26;;;;;;;6.32;4.40;;;;;;;;;;5004606;28;20502;-87
2022/04/02 09:59:55;;;;;;;6.80;4.53;;;;;;;;;;5004101;28;20057;-85
2022/04/02 10:02:44;;;;;;;11.05;4.75;;;;;;;;;;4986578;28;20098;-87
2022/04/02 10:05:14;;;;;;;6.03;4.15;;;;;;;;;;4951524;28;20048;-87
2022/04/02 10:07:40;;;;;;;10.47;4.60;;;;;;;;;;4986459;28;20136;-87
2022/04/02 10:10:07;;;;;;;7.82;5.18;;;;;;;;;;4988037;28;20019;-88
2022/04/02 10:12:38;;;;;;;6.45;4.53;;;;;;;;;;5013394;28;20081;-87
2022/04/02 10:15:04;;;;;;;5.55;3.63;;;;;;;;;;5001922;28;20018;-87
2022/04/02 10:17:32;;;;;;;9.07;4.55;;;;;;;;;;4997078;28;20308;-87
2022/04/02 10:19:59;;;;;;;5.70;4.18;;;;;;;;;;4986746;28;20109;-87
2022/04/02 10:22:35;;;;;;;6.95;3.92;;;;;;;;;;4986300;28;20034;-86
2022/04/02 10:25:05;;;;;;;3.35;3.00;;;;;;;;;;4986469;28;20076;-88
2022/04/02 10:27:34;;;;;;;9.55;4.47;;;;;;;;;;5020471;28;20049;-87
2022/04/02 10:30:03;;;;;;;7.82;4.63;;;;;;;;;;5023058;28;20548;-87
2022/04/02 10:32:47;;;;;;;5.57;3.90;;;;;;;;;;5023168;28;20018;-87
2022/04/02 10:35:14;;;;;;;7.20;3.92;;;;;;;;;;5022838;28;20076;-86
2022/04/02 10:37:43;;;;;;;6.18;3.60;;;;;;;;;;5004792;28;20034;-87
2022/04/02 10:40:13;;;;;;;7.32;3.72;;;;;;;;;;5004812;28;20036;-87
2022/04/02 10:42:50;;;;;;;4.03;3.50;;;;;;;;;;5022965;28;20026;-87
2022/04/02 10:45:18;;;;;;;3.92;3.22;;;;;;;;;;5006624;28;20026;-87
2022/04/02 10:47:56;;;;;;;6.47;3.47;;;;;;;;;;5023994;28;20026;-87
2022/04/02 10:50:24;;;;;;;6.03;3.70;;;;;;;;;;5024095;28;20034;-87
2022/04/02 10:52:51;;;;;;;6.25;3.60;;;;;;;;;;5024566;28;20018;-87
2022/04/02 10:55:19;;;;;;;8.75;3.85;;;;;;;;;;5028344;28;20100;-87
2022/04/02 10:57:45;;;;;;;7.05;3.63;;;;;;;;;;5009367;28;20193;-87
2022/04/02 11:00:11;;;;;;;5.30;4.03;;;;;;;;;;5008766;28;20111;-87
2022/04/02 11:02:40;;;;;;;5.35;3.50;;;;;;;;;;5027079;28;20481;-86
2022/04/02 11:05:07;;;;;;;8.63;3.65;;;;;;;;;;5027509;28;20085;-87
2022/04/02 11:07:35;;;;;;;5.97;4.32;;;;;;;;;;5026674;28;20544;-86
2022/04/02 11:10:01;;;;;;;5.38;3.72;;;;;;;;;;5008180;28;20021;-87
2022/04/02 11:12:28;;;;;;;6.38;3.70;;;;;;;;;;5008826;28;20026;-86
2022/04/02 11:14:54;;;;;;;11.05;3.95;;;;;;;;;;5027544;28;20064;-86
2022/04/02 11:17:32;;;;;;;6.68;4.10;;;;;;;;;;5015201;28;20045;-86
2022/04/02 11:20:11;;;;;;;7.72;4.38;;;;;;;;;;5026766;28;20030;-86
2022/04/02 11:22:57;;;;;;;6.97;4.03;;;;;;;;;;5009954;28;20049;-86
2022/04/02 11:25:24;;;;;;;7.53;4.80;;;;;;;;;;5028357;28;20126;-86
2022/04/02 11:27:51;;;;;;;4.82;3.72;;;;;;;;;;4990135;28;20022;-86
2022/04/02 11:30:18;;;;;;;5.30;4.00;;;;;;;;;;5008352;28;20038;-86
2022/04/02 11:32:46;;;;;;;5.63;4.45;;;;;;;;;;5008508;28;20038;-86
2022/04/02 11:35:22;;;;;;;9.20;4.07;;;;;;;;;;5008512;28;20029;-85
2022/04/02 11:37:48;;;;;;;7.30;4.88;;;;;;;;;;5008109;28;20046;-86
2022/04/02 11:40:15;;;;;;;8.23;4.45;;;;;;;;;;4990284;28;20401;-86
2022/04/02 11:42:46;;;;;;;6.90;4.97;;;;;;;;;;5009620;28;20033;-86
2022/04/02 11:45:16;;;;;;;7.73;4.63;;;;;;;;;;4992433;28;20542;-86
2022/04/02 11:47:47;;;;;;;7.68;4.80;;;;;;;;;;5010277;28;20698;-87
2022/04/02 11:50:14;;;;;;;10.13;5.50;;;;;;;;;;5009328;28;20041;-87
2022/04/02 11:52:51;;;;;;;7.95;5.88;;;;;;;;;;5009157;28;20022;-86
2022/04/02 11:55:17;;;;;;;7.68;5.35;;;;;;;;;;4992056;28;20194;-88
2022/04/02 11:57:59;;;;;;;6.97;5.43;;;;;;;;;;5008840;28;20041;-86
2022/04/02 12:00:26;;;;;;;6.75;5.47;;;;;;;;;;5009020;28;20022;-87
2022/04/02 12:02:52;;;;;;;9.30;5.05;;;;;;;;;;4991344;28;20090;-87
2022/04/02 12:05:20;;;;;;;7.82;5.35;;;;;;;;;;4991217;28;20031;-86
2022/04/02 12:07:49;;;;;;;11.23;5.60;;;;;;;;;;5008696;28;20034;-87
2022/04/02 12:10:27;;;;;;;7.88;5.82;;;;;;;;;;5008309;28;20508;-87
2022/04/02 12:12:55;;;;;;;8.68;5.05;;;;;;;;;;5008428;28;20026;-87
2022/04/02 12:15:21;;;;;;;8.98;6.82;;;;;;;;;;5008383;28;20042;-86
2022/04/02 12:18:13;;;;;;;12.40;5.35;;;;;;;;;;5016509;28;20105;-87
2022/04/02 12:20:40;;;;;;;10.00;5.65;;;;;;;;;;5024622;28;20065;-86
2022/04/02 12:23:12;;;;;;;7.57;6.22;;;;;;;;;;5027996;28;20076;-87
2022/04/02 12:25:39;;;;;;;8.35;6.18;;;;;;;;;;5025473;28;20048;-87
2022/04/02 12:28:10;;;;;;;10.48;6.82;;;;;;;;;;4990333;28;20027;-89
2022/04/02 12:30:37;;;;;;;8.20;6.07;;;;;;;;;;5007176;28;20037;-87
2022/04/02 12:33:07;;;;;;;8.50;6.38;;;;;;;;;;5007436;28;20041;-86
2022/04/02 12:35:33;;;;;;;8.80;6.18;;;;;;;;;;4988602;28;20027;-86
2022/04/02 12:38:02;;;;;;;9.98;6.90;;;;;;;;;;4989864;28;20061;-87
2022/04/02 12:40:29;;;;;;;9.70;6.32;;;;;;;;;;5006542;28;20435;-86
2022/04/02 12:42:56;;;;;;;7.15;5.97;;;;;;;;;;4988368;28;20033;-86
2022/04/02 12:45:22;;;;;;;8.80;6.32;;;;;;;;;;4988110;28;20026;-86
2022/04/02 12:48:00;;;;;;;8.65;6.20;;;;;;;;;;5005105;28;20066;-87
2022/04/02 12:50:27;;;;;;;8.50;6.18;;;;;;;;;;4987782;28;20065;-86
2022/04/02 12:52:53;;;;;;;9.00;6.07;;;;;;;;;;4987768;28;20109;-86
2022/04/02 12:55:23;;;;;;;10.32;6.15;;;;;;;;;;5008626;28;20023;-86
2022/04/02 12:57:56;;;;;;;8.73;6.38;;;;;;;;;;4987449;28;20376;-87
2022/04/02 13:00:26;;;;;;;7.53;5.47;;;;;;;;;;4988264;28;20034;-88
2022/04/02 13:02:56;;;;;;;10.32;6.25;;;;;;;;;;5005956;28;20030;-87
2022/04/02 13:05:24;;;;;;;7.57;5.67;;;;;;;;;;5006112;28;20049;-86
2022/04/02 13:08:04;;;;;;;9.50;6.28;;;;;;;;;;4987818;28;20050;-86
2022/04/02 13:10:31;;;;;;;8.40;6.35;;;;;;;;;;5005585;28;20033;-86
2022/04/02 13:13:04;;;;;;;12.32;6.60;;;;;;;;;;4987922;28;20098;-85
2022/04/02 13:15:31;;;;;;;12.82;5.95;;;;;;;;;;5005787;28;20030;-86
2022/04/02 13:20:45;;;;;;;9.43;6.93;;;;;;;;;;5005868;28;20552;-86
2022/04/02 13:23:27;;;;;;;7.13;6.05;;;;;;;;;;5004924;28;20359;-88
2022/04/02 13:25:59;;;;;;;10.02;6.65;;;;;;;;;;5009504;28;20065;-87
2022/04/02 13:28:52;;;;;;;9.60;6.38;;;;;;;;;;5025163;28;20026;-86
2022/04/02 13:31:23;;;;;;;9.70;6.47;;;;;;;;;;5011581;28;20085;-86
2022/04/02 13:34:08;;;;;;;8.85;6.35;;;;;;;;;;5024566;28;20025;-87
2022/04/02 13:36:49;;;;;;;10.38;7.63;;;;;;;;;;5024615;28;20056;-86
2022/04/02 13:39:19;;;;;;;13.57;7.60;;;;;;;;;;5006218;28;20022;-87
2022/04/02 13:41:51;;;;;;;14.55;8.50;;;;;;;;;;5006872;28;20068;-83
2022/04/02 13:44:23;;;;;;;12.02;8.18;;;;;;;;;;5007533;28;20029;-87
2022/04/02 13:46:54;;;;;;;11.18;7.70;;;;;;;;;;5007533;28;20022;-86
2022/04/02 13:49:33;;;;;;;10.48;6.90;;;;;;;;;;5007389;28;20042;-86
2022/04/02 13:52:00;;;;;;;10.80;7.60;;;;;;;;;;5024247;28;20029;-87
2022/04/02 13:54:52;;;;;;;10.40;7.45;;;;;;;;;;5025086;28;20053;-87
2022/04/02 13:57:20;;;;;;;13.88;7.60;;;;;;;;;;5004923;28;20350;-87
2022/04/02 14:00:04;;;;;;;12.80;8.55;;;;;;;;;;5007732;28;20069;-87
2022/04/02 14:02:34;;;;;;;12.00;8.02;;;;;;;;;;5025484;28;20021;-86
2022/04/02 14:05:04;;;;;;;13.20;8.30;;;;;;;;;;5008047;28;20029;-87
2022/04/02 14:10:08;;;;;;;18.85;8.88;;;;;;;;;;5045801;22;20145;-83
2022/04/02 14:12:42;;;;;;;10.75;6.93;;;;;;;;;;5016032;28;20023;-84
2022/04/02 14:15:09;;;;;;;12.20;7.18;;;;;;;;;;4998233;28;20097;-85
2022/04/02 14:17:41;;;;;;;14.60;8.13;;;;;;;;;;5015190;28;20394;-83
2022/04/02 14:20:11;;;;;;;13.10;7.25;;;;;;;;;;4997020;28;20387;-84
2022/04/02 14:22:41;;;;;;;13.57;6.82;;;;;;;;;;5015779;28;20047;-84
2022/04/02 14:25:08;;;;;;;11.30;6.80;;;;;;;;;;4997268;28;20089;-85
2022/04/02 14:27:43;;;;;;;8.30;6.65;;;;;;;;;;5014553;28;20026;-84
2022/04/02 14:30:15;;;;;;;15.13;7.03;;;;;;;;;;5014196;28;20164;-84
2022/04/02 14:32:47;;;;;;;13.90;7.03;;;;;;;;;;4997179;28;20501;-83
2022/04/02 14:35:28;;;;;;;10.45;6.38;;;;;;;;;;4997078;28;20026;-85
2022/04/02 14:37:54;;;;;;;9.52;6.80;;;;;;;;;;5015010;28;20022;-84
2022/04/02 14:40:39;;;;;;;10.68;7.32;;;;;;;;;;4997047;28;20383;-84
2022/04/02 14:43:24;;;;;;;10.90;7.50;;;;;;;;;;5014924;28;20065;-85
2022/04/02 14:46:13;;;;;;;9.38;5.95;;;;;;;;;;4997574;28;20021;-84
2022/04/02 14:48:57;;;;;;;10.52;6.72;;;;;;;;;;4999507;28;20223;-85
2022/04/02 14:51:33;;;;;;;11.52;6.30;;;;;;;;;;4998295;28;20251;-84
2022/04/02 14:54:18;;;;;;;8.68;6.40;;;;;;;;;;4997775;28;20022;-85
2022/04/02 14:57:03;;;;;;;9.63;6.53;;;;;;;;;;4997611;28;20030;-84
2022/04/02 15:00:00;;;;;;;9.02;6.53;;;;;;;;;;5014716;28;20058;-85
2022/04/02 15:02:45;;;;;;;7.22;5.63;;;;;;;;;;4996725;28;20030;-84